Pagrindinis puslapis
METAR-TAF:

METAR-TAF

Oro uostai :

Lagosas, Nigerija

platuma: 06-35N, ilguma: 003-20E, Aukštis: 40 m

Dabartinis oras

Ataskaita buvo paskelbta 1 valandą ir 16 minutes, ne 08:00 UTC
Vėjas 5 kt iš Šiaurės
Temperatūra 29°C
Drėgmė 89%
Slėgis 1013 hPa
Matomumas: 7000 m
Mažai debesys ne aukštis 1300 ft

METAR: DNMM 240800Z 01005KT 7000 FEW013 29/27 Q1013 NOSIG

Laikas: 10:16 (09:16 UTC)

Prognozė

Ataskaita buvo paskelbta 10 valandos ir 16 minutes, ne 23:00 UTC
Prognozė galioja nuo 24 metu 00 UTC su 25 metu 06 UTC
Vėjas 2 kt nuo kintamojo kryptimis
Matomumas: 8000 m
Mažai debesys ne aukštis 1300 ft
Laikinai
nuo 24 metu 05 UTC su 24 metu 08 UTC
Matomumas: 5000 m
migla
Tapsmas
nuo 24 metu 08 UTC su 24 metu 0 UTC
Vėjas 10 kt iš Vakarų
Su prošvaistėmis ne aukštis 1400 ft

TAF: DNMM 232300Z 2400/2506 VRB02KT 8000 FEW013 TEMPO 2405/2408 5000 HZ BECMG 2408/240 26010KT BKN014

Orai ataskaitas ir orų prognozės (METAR, TAF).

turimą stotys yra geltonos ir raudonos taškus žemėlapyje.

Perkelti pele per norėdami pamatyti stoties vardą.

Tada spustelėkite, norėdami matyti oro stebėjimo ir prognozės.

Norėdami pakeisti žemėlapį: spustelėkite ant žalios mygtukų su juodo kryžiaus žemyn,; žalią mygtuką su brūkšneliu, jei norite nutolinti; arba žalių rodyklių gretimoms žemėlapius.


METAR-TAF: